Saint Paul Island, AK

2:22 PM AKST on December 08, 2016 (GMT -0900)
Saint Paul Island | | Change Station

Elev 30 ft 57.16 °N, 170.22 °W | Updated 29 minutes ago

Clear
Clear
28 °F
Feels Like 20 °F
N
8
Wind Variable Wind from NNE

Today
High -- | Low -- °F
--% Chance of Precip.
Yesterday
High -- | Low -- °F
Precip. -- in
Pressure 30.29 in
Visibility 10.0 miles
Clouds Few 2300 ft
Windchill 20 °F
Dew Point 21 °F
Humidity 75%
Rainfall 0.00 in
Snow Depth Not available.
10:47 AM 5:38 PM
Waxing Gibbous, 68% visible
METAR PASN 082253Z 03007KT 10SM FEW023 M02/M06 A3029 RMK AO2 SLP257 T10221061
Pressure 30.29 in
Visibility 10.0 miles
Clouds Few 2300 ft
Windchill 20 °F
Dew Point 21 °F
Humidity 75%
Rainfall 0.00 in
Snow Depth Not available.
10:47 AM 5:38 PM
Waxing Gibbous, 68% visible
METAR PASN 082253Z 03007KT 10SM FEW023 M02/M06 A3029 RMK AO2 SLP257 T10221061

10-Day Weather Forecast

Almanac

Astronomy

Dec. 08, 2016 Rise Set
Actual Time
Civil Twilight
Nautical Twilight
Astronomical Twilight
Moon
Length of Visible Light
Length of Day
Tomorrow will be .
, % of the Moon is Illuminated

Today's Extremes

State Highs State Lows

Community

WunderPhotos

Upload Photos

1,956,277 photos uploaded!

WunderBlog® & News

Nearby

Air Quality

  Air Quality AQ Index Pollutant
Not available.

Snow Depth

Station Depth Elevation

Earthquake Activity

City Distance Mag. Time & Date
Minimum magnitude displayed is 2.5.

Coastal Water Temperatures

Place Temperature

Stations

Nearby Weather Stations

Station Location Temp. Windchill Dew Point Humidity Wind Precip. Elev Updated Type
                   

Watches & Warnings

There are currently no watches in effect.